createdAt,value
2023-02-05T00:01:38.626Z,66694.50
2023-02-05T00:04:06.155Z,66697.28
2023-02-05T00:06:33.659Z,66693.94
2023-02-05T00:09:01.117Z,66686.66
2023-02-05T00:11:28.583Z,66685.53
2023-02-05T00:13:56.044Z,66687.56
2023-02-05T00:16:25.179Z,66690.34
2023-02-05T00:18:53.117Z,66678.25
2023-02-05T00:21:22.389Z,66675.47
2023-02-05T00:23:49.960Z,66675.81
2023-02-05T00:26:18.017Z,66674.69
2023-02-05T00:28:47.168Z,66671.00
2023-02-05T00:31:21.673Z,66663.94
2023-02-05T00:33:50.743Z,66670.44
2023-02-05T00:36:19.912Z,66665.19
2023-02-05T00:38:47.603Z,66657.56
2023-02-05T00:41:15.353Z,66658.13
2023-02-05T00:43:43.129Z,66665.19
2023-02-05T00:46:11.132Z,66659.78
2023-02-05T00:48:39.663Z,66653.66
2023-02-05T00:51:09.850Z,66612.03
2023-02-05T00:53:37.416Z,66654.00
2023-02-05T00:56:05.226Z,66649.53
2023-02-05T00:58:32.903Z,66647.84
2023-02-05T01:01:00.279Z,66648.41
2023-02-05T01:03:27.892Z,66603.66
2023-02-05T01:05:55.367Z,66646.16
2023-02-05T01:08:22.918Z,66645.47
2023-02-05T01:10:51.254Z,66649.53
2023-02-05T01:13:19.369Z,66652.31
2023-02-05T01:15:46.971Z,66652.88
2023-02-05T01:18:14.404Z,66652.31
2023-02-05T01:20:42.815Z,66598.84
2023-02-05T01:23:11.140Z,66645.81
2023-02-05T01:25:38.850Z,66641.34
2023-02-05T01:28:07.206Z,66636.53
2023-02-05T01:30:35.461Z,66635.19
2023-02-05T01:33:04.047Z,66638.34
2023-02-05T01:35:32.216Z,66630.72
2023-02-05T01:37:59.796Z,66627.94
2023-02-05T01:40:27.795Z,66627.16
2023-02-05T01:42:55.276Z,66627.16
2023-02-05T01:45:22.592Z,66642.47
2023-02-05T01:47:55.884Z,66661.47
2023-02-05T01:50:55.941Z,66660.72
2023-02-05T01:53:26.883Z,66646.59
2023-02-05T01:55:57.984Z,66637.44
2023-02-05T01:58:29.738Z,66575.91
2023-02-05T02:00:57.273Z,66612.81
2023-02-05T02:03:28.170Z,66620.84
2023-02-05T02:05:56.328Z,66627.59
2023-02-05T02:08:25.457Z,66630.38
2023-02-05T02:10:56.830Z,66628.47
2023-02-05T02:13:27.496Z,66623.13
2023-02-05T02:15:55.662Z,66626.59
2023-02-05T02:18:27.410Z,66637.22
2023-02-05T02:21:28.472Z,66624.56
2023-02-05T02:24:11.097Z,66629.94
2023-02-05T02:26:53.507Z,66626.00
2023-02-05T02:29:53.751Z,66622.88
2023-02-05T02:32:27.022Z,66574.59
2023-02-05T02:35:10.405Z,66609.69
2023-02-05T02:38:08.149Z,66602.19
2023-02-05T02:40:46.745Z,66606.09
2023-02-05T02:43:27.936Z,66599.97
2023-02-05T02:46:16.839Z,66604.22
2023-02-05T02:48:48.085Z,66604.44
2023-02-05T02:51:18.465Z,66557.59
2023-02-05T02:53:49.351Z,66598.28
2023-02-05T02:56:19.352Z,66605.34
2023-02-05T02:58:59.622Z,66594.16
2023-02-05T03:01:34.919Z,66593.25
2023-02-05T03:04:14.290Z,66550.56
2023-02-05T03:06:46.061Z,66600.31
2023-02-05T03:09:25.399Z,66543.28
2023-02-05T03:11:53.007Z,66587.44
2023-02-05T03:14:21.819Z,66544.06
2023-02-05T03:16:49.545Z,66597.72
2023-02-05T03:19:17.208Z,66591.94
2023-02-05T03:21:50.618Z,66542.38
2023-02-05T03:24:18.374Z,66590.78
2023-02-05T03:26:45.674Z,66541.84
2023-02-05T03:29:23.886Z,66538.47
2023-02-05T03:32:35.073Z,66577.81
2023-02-05T03:35:17.734Z,66571.09
2023-02-05T03:38:16.510Z,66578.47
2023-02-05T03:41:05.337Z,66586.88
2023-02-05T03:43:52.197Z,66535.13
2023-02-05T03:46:40.270Z,66580.41
2023-02-05T03:49:28.551Z,66571.44
2023-02-05T03:51:59.116Z,66569.75
2023-02-05T03:54:39.636Z,66561.94
2023-02-05T03:57:24.767Z,66569.75
2023-02-05T03:59:53.608Z,66572.34
2023-02-05T04:02:22.684Z,66560.84
2023-02-05T04:04:50.251Z,66550.41
2023-02-05T04:07:17.865Z,66544.63
2023-02-05T04:09:47.351Z,66544.44
2023-02-05T04:12:14.963Z,66542.75
2023-02-05T04:14:42.466Z,66541.84
2023-02-05T04:17:12.295Z,66555.56
2023-02-05T04:19:41.634Z,66499.41
2023-02-05T04:22:10.288Z,66534.44
2023-02-05T04:24:41.024Z,66544.44
2023-02-05T04:27:09.436Z,66539.38
2023-02-05T04:29:36.951Z,66534.34
2023-02-05T04:32:06.143Z,66534.25
2023-02-05T04:34:33.506Z,66544.44
2023-02-05T04:37:02.278Z,66552.09
2023-02-05T04:39:31.128Z,66545.41
2023-02-05T04:41:58.642Z,66540.16
2023-02-05T04:44:28.038Z,66536.03
2023-02-05T04:46:55.496Z,66526.97
2023-02-05T04:49:23.004Z,66528.22
2023-02-05T04:51:50.365Z,66522.06
2023-02-05T04:54:17.664Z,66468.13
2023-02-05T04:56:45.708Z,66463.09
2023-02-05T04:59:13.049Z,66512.56
2023-02-05T05:01:40.862Z,66467.34
2023-02-05T05:04:09.188Z,66460.84
2023-02-05T05:06:36.664Z,66514.25
2023-02-05T05:09:04.203Z,66467.00
2023-02-05T05:11:31.789Z,66475.16
2023-02-05T05:13:59.059Z,66479.28
2023-02-05T05:16:26.573Z,66530.31
2023-02-05T05:18:53.918Z,66538.16
2023-02-05T05:21:21.234Z,66559.50
2023-02-05T05:23:48.880Z,66569.75
2023-02-05T05:26:16.732Z,66534.34
2023-02-05T05:28:43.956Z,66540.16
2023-02-05T05:31:17.004Z,66588.44
2023-02-05T05:33:44.376Z,66592.47
2023-02-05T05:36:12.853Z,66598.63
2023-02-05T05:38:40.593Z,66609.69
2023-02-05T05:41:26.906Z,66594.91
2023-02-05T05:43:54.593Z,66595.50
2023-02-05T05:46:25.448Z,66549.44
2023-02-05T05:48:57.626Z,66585.63
2023-02-05T05:51:27.495Z,66597.16
2023-02-05T05:53:55.692Z,66583.97
2023-02-05T05:56:23.679Z,66537.13
2023-02-05T05:58:51.373Z,66586.88
2023-02-05T06:01:20.424Z,66588.56
2023-02-05T06:03:47.717Z,66527.28
2023-02-05T06:06:15.114Z,66573.47
2023-02-05T06:08:47.330Z,66568.88
2023-02-05T06:11:15.332Z,66568.88
2023-02-05T06:13:42.679Z,66575.69
2023-02-05T06:16:10.382Z,66529.53
2023-02-05T06:18:37.725Z,66574.03
2023-02-05T06:21:06.007Z,66569.56
2023-02-05T06:23:34.324Z,66568.97
2023-02-05T06:26:01.699Z,66553.56
2023-02-05T06:28:29.033Z,66547.22
2023-02-05T06:30:56.400Z,66548.88
2023-02-05T06:33:27.134Z,66544.44
2023-02-05T06:35:54.532Z,66536.81
2023-02-05T06:38:22.292Z,66534.59
2023-02-05T06:40:49.901Z,66528.66
2023-02-05T06:43:17.131Z,66540.50
2023-02-05T06:45:44.411Z,66533.34
2023-02-05T06:48:11.719Z,66542.16
2023-02-05T06:50:39.063Z,66539.59
2023-02-05T06:53:06.393Z,66541.84
2023-02-05T06:55:34.198Z,66508.31
2023-02-05T06:58:01.613Z,66558.56
2023-02-05T07:00:29.599Z,66558.81
2023-02-05T07:02:57.901Z,66570.66
2023-02-05T07:05:25.760Z,66574.25
2023-02-05T07:07:53.065Z,66581.50
2023-02-05T07:10:20.861Z,66589.91
2023-02-05T07:12:48.167Z,66597.16
2023-02-05T07:15:16.106Z,66611.94
2023-02-05T07:17:43.657Z,66631.06
2023-02-05T07:20:11.456Z,66595.47
2023-02-05T07:22:38.877Z,66670.78
2023-02-05T07:25:06.648Z,66663.94
2023-02-05T07:27:33.997Z,66665.63
2023-02-05T07:30:01.340Z,66667.84
2023-02-05T07:32:28.831Z,66676.94
2023-02-05T07:34:56.157Z,66669.09
2023-02-05T07:37:23.444Z,66670.44
2023-02-05T07:39:50.874Z,66674.69
2023-02-05T07:42:18.210Z,66671.56
2023-02-05T07:44:51.528Z,66677.72
2023-02-05T07:47:19.084Z,66688.13
2023-02-05T07:49:46.424Z,66681.06
2023-02-05T07:52:13.612Z,66703.78
2023-02-05T07:54:41.368Z,66694.50
2023-02-05T07:57:08.634Z,66685.53
2023-02-05T07:59:35.847Z,66694.84
2023-02-05T08:02:03.581Z,66698.19
2023-02-05T08:04:30.998Z,66697.28
2023-02-05T08:06:58.352Z,66700.31
2023-02-05T08:09:25.764Z,66708.50
2023-02-05T08:11:53.073Z,66707.59
2023-02-05T08:14:20.435Z,66698.63
2023-02-05T08:16:47.740Z,66701.22
2023-02-05T08:19:17.217Z,66703.66
2023-02-05T08:21:45.182Z,66722.81
2023-02-05T08:24:13.266Z,66737.59
2023-02-05T08:26:40.802Z,66749.69
2023-02-05T08:29:08.630Z,66754.94
2023-02-05T08:31:36.338Z,66755.53
2023-02-05T08:34:04.436Z,66755.72
2023-02-05T08:36:31.847Z,66787.22
2023-02-05T08:38:59.241Z,66794.50
2023-02-05T08:41:26.671Z,66798.63
2023-02-05T08:43:53.992Z,66804.59
2023-02-05T08:46:25.975Z,66805.00
2023-02-05T08:48:54.244Z,66738.66
2023-02-05T08:51:23.093Z,66782.06
2023-02-05T08:53:50.698Z,66787.78
2023-02-05T08:56:20.128Z,66806.91
2023-02-05T08:58:47.627Z,66827.41
2023-02-05T09:01:17.260Z,66824.41
2023-02-05T09:03:45.571Z,66845.69
2023-02-05T09:06:15.198Z,66852.22
2023-02-05T09:08:43.085Z,66855.97
2023-02-05T09:11:10.880Z,66866.75
2023-02-05T09:13:38.235Z,66875.97
2023-02-05T09:16:07.548Z,66917.44
2023-02-05T09:18:35.354Z,66945.47
2023-02-05T09:21:05.909Z,67052.63
2023-02-05T09:23:33.289Z,67074.53
2023-02-05T09:26:00.912Z,67082.59
2023-02-05T09:28:28.227Z,67107.88
2023-02-05T09:30:55.683Z,67141.91
2023-02-05T09:33:23.037Z,67234.63
2023-02-05T09:35:50.377Z,67340.56
2023-02-05T09:38:18.773Z,67263.31
2023-02-05T09:41:05.464Z,67197.53
2023-02-05T09:44:05.738Z,67148.31
2023-02-05T09:47:17.683Z,67132.34
2023-02-05T09:49:55.592Z,67043.31
2023-02-05T09:52:29.297Z,67031.88
2023-02-05T09:55:04.020Z,67010.19
2023-02-05T09:57:37.479Z,67010.91
2023-02-05T10:00:16.913Z,66998.25
2023-02-05T10:03:07.549Z,66971.50
2023-02-05T10:05:47.360Z,66986.63
2023-02-05T10:08:36.254Z,66996.84
2023-02-05T10:11:13.964Z,67003.81
2023-02-05T10:13:42.958Z,67026.81
2023-02-05T10:16:41.237Z,67054.88
2023-02-05T10:19:14.547Z,67079.34
2023-02-05T10:21:47.954Z,67055.09
2023-02-05T10:24:21.407Z,67021.78
2023-02-05T10:26:57.274Z,67045.75
2023-02-05T10:29:33.444Z,67047.22
2023-02-05T10:32:15.268Z,67062.19
2023-02-05T10:34:53.768Z,67048.13
2023-02-05T10:37:28.110Z,67041.41
2023-02-05T10:39:57.663Z,67055.66
2023-02-05T10:42:39.752Z,67062.88
2023-02-05T10:45:29.162Z,67061.06
2023-02-05T10:47:56.618Z,67050.03
2023-02-05T10:50:51.613Z,67073.97
2023-02-05T10:53:22.352Z,67099.59
2023-02-05T10:55:50.220Z,67103.38
2023-02-05T10:58:40.718Z,67107.31
2023-02-05T11:01:14.504Z,67115.72
2023-02-05T11:03:53.575Z,67119.09
2023-02-05T11:06:24.457Z,67122.25
2023-02-05T11:08:52.664Z,67116.63
2023-02-05T11:11:21.587Z,67107.44
2023-02-05T11:13:56.208Z,67119.78
2023-02-05T11:16:34.277Z,67113.47
2023-02-05T11:19:01.920Z,67130.69
2023-02-05T11:21:50.486Z,67132.56
2023-02-05T11:24:30.122Z,67146.97
2023-02-05T11:27:16.059Z,67151.03
2023-02-05T11:29:43.847Z,67151.13
2023-02-05T11:32:22.693Z,67145.50
2023-02-05T11:34:50.350Z,67145.28
2023-02-05T11:37:19.042Z,67138.34
2023-02-05T11:39:53.873Z,67120.22
2023-02-05T11:42:24.917Z,67128.44
2023-02-05T11:45:01.245Z,67149.00
2023-02-05T11:47:38.419Z,67141.91
2023-02-05T11:50:18.871Z,67161.38
2023-02-05T11:52:46.439Z,67156.38
2023-02-05T11:55:32.089Z,67160.81
2023-02-05T11:58:02.737Z,67168.31
2023-02-05T12:00:30.640Z,67170.56
2023-02-05T12:03:05.713Z,67178.78
2023-02-05T12:05:38.853Z,67186.09
2023-02-05T12:08:26.989Z,67192.13
2023-02-05T12:11:09.404Z,67190.78
2023-02-05T12:14:02.414Z,67209.53
2023-02-05T12:16:32.812Z,67202.03
2023-02-05T12:19:03.403Z,67199.78
2023-02-05T12:21:43.071Z,67209.34
2023-02-05T12:24:16.513Z,67225.09
2023-02-05T12:26:47.641Z,67218.91
2023-02-05T12:29:54.126Z,67193.94
2023-02-05T12:32:50.499Z,67215.16
2023-02-05T12:35:41.002Z,67217.22
2023-02-05T12:38:32.294Z,67220.38
2023-02-05T12:41:20.322Z,67228.44
2023-02-05T12:43:48.588Z,67206.53
2023-02-05T12:46:21.803Z,67175.63
2023-02-05T12:49:36.760Z,67177.09
2023-02-05T12:52:10.245Z,67175.41
2023-02-05T12:54:56.285Z,67187.97
2023-02-05T12:57:38.371Z,67188.56
2023-02-05T13:00:14.105Z,67172.47
2023-02-05T13:02:41.441Z,67177.66
2023-02-05T13:05:38.205Z,67164.19
2023-02-05T13:08:19.728Z,67157.44
2023-02-05T13:10:57.990Z,67156.16
2023-02-05T13:13:30.522Z,67154.63
2023-02-05T13:16:12.807Z,67150.13
2023-02-05T13:18:55.583Z,67135.19
2023-02-05T13:21:41.678Z,67138.75
2023-02-05T13:24:57.067Z,67134.97
2023-02-05T13:27:51.872Z,67143.03
2023-02-05T13:30:31.032Z,67123.38
2023-02-05T13:33:03.532Z,67127.09
2023-02-05T13:35:40.202Z,67125.81
2023-02-05T13:38:17.492Z,67071.91
2023-02-05T13:41:03.569Z,67134.25
2023-02-05T13:43:52.545Z,67137.41
2023-02-05T13:46:39.918Z,67144.50
2023-02-05T13:49:14.603Z,67130.47
2023-02-05T13:52:26.853Z,67122.81
2023-02-05T13:55:03.063Z,67123.38
2023-02-05T13:58:08.285Z,67128.09
2023-02-05T14:00:38.691Z,67129.75
2023-02-05T14:03:09.837Z,67154.84
2023-02-05T14:05:42.904Z,67144.50
2023-02-05T14:08:26.443Z,67151.69
2023-02-05T14:11:03.529Z,67139.31
2023-02-05T14:13:34.521Z,67145.28
2023-02-05T14:16:23.854Z,67132.78
2023-02-05T14:19:12.138Z,67134.63
2023-02-05T14:21:45.552Z,67137.78
2023-02-05T14:24:38.358Z,67115.53
2023-02-05T14:27:26.056Z,67119.59
2023-02-05T14:29:53.959Z,67114.94
2023-02-05T14:32:27.912Z,67111.59
2023-02-05T14:35:02.255Z,67118.31
2023-02-05T14:37:32.970Z,67101.13
2023-02-05T14:40:14.085Z,67117.19
2023-02-05T14:42:43.019Z,67107.31
2023-02-05T14:45:16.192Z,67109.91
2023-02-05T14:47:45.045Z,67108.56
2023-02-05T14:50:22.382Z,67109.13
2023-02-05T14:52:58.815Z,67116.09
2023-02-05T14:55:37.789Z,67096.44
2023-02-05T14:58:10.806Z,67076.75
2023-02-05T15:00:42.144Z,67072.28
2023-02-05T15:03:12.737Z,67071.50
2023-02-05T15:05:46.891Z,67028.16
2023-02-05T15:08:17.293Z,67075.44
2023-02-05T15:10:50.836Z,67060.13
2023-02-05T15:13:20.244Z,67055.66
2023-02-05T15:16:08.421Z,67049.25
2023-02-05T15:18:43.435Z,67047.03
2023-02-05T15:21:25.225Z,67055.22
2023-02-05T15:24:03.013Z,67036.00
2023-02-05T15:26:41.846Z,67044.22
2023-02-05T15:29:28.010Z,67041.41
2023-02-05T15:32:14.606Z,67023.78
2023-02-05T15:34:47.816Z,67025.69
2023-02-05T15:37:21.174Z,67031.09
2023-02-05T15:39:55.285Z,67022.88
2023-02-05T15:42:35.255Z,67032.22
2023-02-05T15:45:26.237Z,67010.75
2023-02-05T15:48:11.844Z,67017.84
2023-02-05T15:50:49.242Z,67006.03
2023-02-05T15:53:39.077Z,67018.75
2023-02-05T15:56:12.461Z,67004.94
2023-02-05T15:58:47.811Z,67012.78
2023-02-05T16:01:40.085Z,67015.59
2023-02-05T16:04:22.776Z,67017.63
2023-02-05T16:06:50.212Z,67011.09
2023-02-05T16:09:24.347Z,66964.78
2023-02-05T16:11:52.528Z,67002.13
2023-02-05T16:14:28.744Z,67002.69
2023-02-05T16:17:15.334Z,66981.59
2023-02-05T16:19:54.378Z,66991.03
2023-02-05T16:22:42.786Z,66980.81
2023-02-05T16:25:34.805Z,66974.09
2023-02-05T16:28:17.496Z,66916.56
2023-02-05T16:30:58.538Z,66970.50
2023-02-05T16:33:41.896Z,66963.28
2023-02-05T16:36:31.909Z,66970.91
2023-02-05T16:39:02.190Z,66971.84
2023-02-05T16:41:37.058Z,66965.44
2023-02-05T16:44:07.512Z,66955.56
2023-02-05T16:46:36.549Z,66952.78
2023-02-05T16:49:31.183Z,66941.56
2023-02-05T16:52:01.137Z,66932.78
2023-02-05T16:54:32.383Z,66931.25
2023-02-05T16:57:16.807Z,66944.16
2023-02-05T16:59:47.107Z,66935.94
2023-02-05T17:02:39.947Z,66924.03
2023-02-05T17:05:21.922Z,66935.38
2023-02-05T17:08:00.897Z,66935.16
2023-02-05T17:10:31.711Z,66926.41
2023-02-05T17:13:05.146Z,66922.50
2023-02-05T17:15:36.260Z,66927.31
2023-02-05T17:18:20.083Z,66932.03
2023-02-05T17:20:47.598Z,66918.22
2023-02-05T17:23:16.425Z,66920.81
2023-02-05T17:25:54.292Z,66871.16
2023-02-05T17:28:28.364Z,66927.31
2023-02-05T17:31:00.332Z,66911.47
2023-02-05T17:33:28.781Z,66905.66
2023-02-05T17:35:59.032Z,66898.94
2023-02-05T17:38:26.214Z,66922.50
2023-02-05T17:41:13.405Z,66921.34
2023-02-05T17:43:40.712Z,66916.31
2023-02-05T17:46:13.426Z,66902.53
2023-02-05T17:48:41.027Z,66895.56
2023-02-05T17:51:18.009Z,66897.59
2023-02-05T17:53:45.062Z,66901.53
2023-02-05T17:56:13.670Z,66906.00
2023-02-05T17:58:41.769Z,66902.09
2023-02-05T18:01:11.801Z,66891.44
2023-02-05T18:03:40.916Z,66881.91
2023-02-05T18:06:10.463Z,66831.03
2023-02-05T18:08:37.585Z,66875.19
2023-02-05T18:11:07.242Z,66868.09
2023-02-05T18:13:34.851Z,66860.69
2023-02-05T18:16:03.471Z,66859.69
2023-02-05T18:18:32.564Z,66858.38
2023-02-05T18:20:59.832Z,66858.91
2023-02-05T18:23:29.468Z,66855.00
2023-02-05T18:25:57.912Z,66847.16
2023-02-05T18:28:25.252Z,66837.84
2023-02-05T18:31:11.257Z,66838.19
2023-02-05T18:33:38.416Z,66839.31
2023-02-05T18:36:12.104Z,66837.28
2023-02-05T18:38:41.404Z,66839.88
2023-02-05T18:41:10.424Z,66847.59
2023-02-05T18:43:38.072Z,66855.56
2023-02-05T18:46:10.198Z,66858.38
2023-02-05T18:48:38.136Z,66842.34
2023-02-05T18:51:11.336Z,66846.03
2023-02-05T18:53:39.384Z,66822.16
2023-02-05T18:56:11.236Z,66827.56
2023-02-05T18:58:38.315Z,66826.66
2023-02-05T19:01:10.674Z,66825.53
2023-02-05T19:03:38.797Z,66822.72
2023-02-05T19:06:07.026Z,66821.59
2023-02-05T19:08:34.699Z,66817.69
2023-02-05T19:11:17.382Z,66811.28
2023-02-05T19:13:44.578Z,66797.84
2023-02-05T19:16:14.780Z,66793.38
2023-02-05T19:18:46.546Z,66792.25
2023-02-05T19:21:16.472Z,66794.72
2023-02-05T19:23:44.827Z,66785.19
2023-02-05T19:26:14.595Z,66780.50
2023-02-05T19:28:43.631Z,66773.44
2023-02-05T19:31:13.764Z,66774.97
2023-02-05T19:33:41.501Z,66790.78
2023-02-05T19:36:10.618Z,66787.78
2023-02-05T19:38:40.176Z,66737.34
2023-02-05T19:41:17.124Z,66786.09
2023-02-05T19:43:50.550Z,66736.97
2023-02-05T19:46:25.008Z,66784.97
2023-02-05T19:48:53.437Z,66780.72
2023-02-05T19:51:21.445Z,66780.50
2023-02-05T19:53:48.834Z,66717.97
2023-02-05T19:56:21.796Z,66761.44
2023-02-05T19:58:51.438Z,66760.53
2023-02-05T20:01:30.475Z,66758.66
2023-02-05T20:04:08.267Z,66708.44
2023-02-05T20:06:36.522Z,66753.06
2023-02-05T20:09:10.271Z,66754.41
2023-02-05T20:11:38.705Z,66715.16
2023-02-05T20:14:07.222Z,66714.38
2023-02-05T20:16:35.228Z,66760.34
2023-02-05T20:19:02.765Z,66756.63
2023-02-05T20:21:30.444Z,66756.06
2023-02-05T20:23:57.851Z,66744.53
2023-02-05T20:26:25.561Z,66742.84
2023-02-05T20:29:12.249Z,66741.50
2023-02-05T20:31:43.032Z,66745.78
2023-02-05T20:34:18.354Z,66747.88
2023-02-05T20:36:47.105Z,66744.09
2023-02-05T20:39:17.090Z,66740.72
2023-02-05T20:41:49.308Z,66682.72
2023-02-05T20:44:17.515Z,66730.88
2023-02-05T20:46:45.028Z,66685.31
2023-02-05T20:49:12.451Z,66724.16
2023-02-05T20:51:40.064Z,66730.31
2023-02-05T20:54:07.786Z,66739.81
2023-02-05T20:56:35.543Z,66725.63
2023-02-05T20:59:04.904Z,66719.13
2023-02-05T21:01:36.778Z,66708.25
2023-02-05T21:04:05.555Z,66692.03
2023-02-05T21:06:36.106Z,66692.59
2023-02-05T21:09:04.186Z,66635.53
2023-02-05T21:11:31.836Z,66675.81
2023-02-05T21:13:59.055Z,66675.13
2023-02-05T21:16:27.692Z,66674.69
2023-02-05T21:18:55.601Z,66615.94
2023-02-05T21:21:24.224Z,66607.75
2023-02-05T21:24:05.981Z,66651.75
2023-02-05T21:26:38.615Z,66650.06
2023-02-05T21:29:15.697Z,66600.88
2023-02-05T21:31:47.385Z,66636.66
2023-02-05T21:34:17.765Z,66651.75
2023-02-05T21:36:47.243Z,66648.63
2023-02-05T21:39:17.703Z,66637.66
2023-02-05T21:41:45.686Z,66641.13
2023-02-05T21:44:13.463Z,66599.38
2023-02-05T21:46:40.740Z,66605.31
2023-02-05T21:49:07.748Z,66641.13
2023-02-05T21:51:35.547Z,66640.78
2023-02-05T21:54:03.958Z,66639.66
2023-02-05T21:56:36.841Z,66641.34
2023-02-05T21:59:04.545Z,66646.72
2023-02-05T22:01:32.553Z,66641.91
2023-02-05T22:04:02.215Z,66645.25
2023-02-05T22:06:33.795Z,66656.47
2023-02-05T22:09:03.862Z,66622.66
2023-02-05T22:11:31.951Z,66665.63
2023-02-05T22:13:59.078Z,66619.84
2023-02-05T22:16:31.701Z,66664.28
2023-02-05T22:19:00.167Z,66611.13
2023-02-05T22:21:29.588Z,66652.53
2023-02-05T22:23:58.614Z,66648.84
2023-02-05T22:26:34.268Z,66655.31
2023-02-05T22:29:05.239Z,66651.22
2023-02-05T22:31:33.208Z,66638.53
2023-02-05T22:34:03.562Z,66635.75
2023-02-05T22:36:33.091Z,66631.50
2023-02-05T22:39:01.145Z,66635.53
2023-02-05T22:41:31.629Z,66629.94
2023-02-05T22:44:00.643Z,66624.91
2023-02-05T22:46:31.101Z,66575.91
2023-02-05T22:49:00.594Z,66618.41
2023-02-05T22:51:31.509Z,66567.88
2023-02-05T22:54:00.576Z,66609.47
2023-02-05T22:56:34.027Z,66606.69
2023-02-05T22:59:03.987Z,66604.22
2023-02-05T23:01:33.768Z,66602.53
2023-02-05T23:04:06.938Z,66547.75
2023-02-05T23:06:43.959Z,66589.66
2023-02-05T23:09:17.763Z,66537.13
2023-02-05T23:11:47.743Z,66582.06
2023-02-05T23:14:16.988Z,66583.19
2023-02-05T23:16:45.979Z,66584.06
2023-02-05T23:19:18.746Z,66582.84
2023-02-05T23:21:48.695Z,66588.00
2023-02-05T23:24:19.305Z,66586.34
2023-02-05T23:26:48.518Z,66539.94
2023-02-05T23:29:17.214Z,66584.06
2023-02-05T23:31:44.406Z,66542.19
2023-02-05T23:34:12.186Z,66583.75
2023-02-05T23:36:39.345Z,66534.56
2023-02-05T23:39:06.367Z,66531.19
2023-02-05T23:41:36.563Z,66526.19
2023-02-05T23:44:17.725Z,66521.16
2023-02-05T23:46:46.623Z,66568.44
2023-02-05T23:49:17.683Z,66559.72
2023-02-05T23:51:44.915Z,66555.78
2023-02-05T23:54:12.237Z,66556.69
2023-02-05T23:56:42.236Z,66544.09
2023-02-05T23:59:11.220Z,66544.44
